Time;durP1;ratioP1;P1;durP2;ratioP2;P2;SDS_P1;SDS_P2;PMS_P1;PMS_P2;Temp;Humidity;BMP_temperature;BMP_pressure;BME280_temperature;BME280_humidity;BME280_pressure;Samples;Min_cycle;Max_cycle;Signal;HPM_P1;HPM_P2
2022/10/29 00:06:41;;;;;;;3.43;1.53;;;19.80;63.20;;;;;;20642979;28;20031;-74
2022/10/29 00:16:42;;;;;;;2.88;2.10;;;19.80;63.30;;;;;;20663881;28;20297;-73
2022/10/29 00:26:42;;;;;;;3.70;1.50;;;19.80;63.30;;;;;;20678841;28;20029;-73
2022/10/29 00:36:43;;;;;;;4.83;1.70;;;19.80;63.40;;;;;;20674535;28;20766;-73
2022/10/29 00:46:49;;;;;;;6.95;2.13;;;19.80;63.40;;;;;;20692722;28;20627;-73
2022/10/29 00:56:52;;;;;;;3.95;1.38;;;19.80;63.50;;;;;;20656120;28;20373;-72
2022/10/29 01:06:53;;;;;;;3.60;1.60;;;19.70;63.50;;;;;;20668541;28;20416;-73
2022/10/29 01:17:14;;;;;;;4.43;1.80;;;19.80;63.60;;;;;;20667565;28;20125;-73
2022/10/29 01:27:37;;;;;;;3.88;1.52;;;19.70;63.90;;;;;;20682026;28;20446;-73
2022/10/29 01:37:57;;;;;;;3.38;1.60;;;19.70;63.70;;;;;;20645821;28;20065;-74
2022/10/29 01:48:06;;;;;;;2.67;1.70;;;19.70;63.80;;;;;;20657615;28;20027;-72
2022/10/29 01:58:06;;;;;;;3.30;1.42;;;19.70;63.80;;;;;;20666720;28;20049;-73
2022/10/29 02:08:26;;;;;;;2.58;1.45;;;19.70;63.90;;;;;;21031613;23;20161;-73
2022/10/29 02:18:27;;;;;;;2.85;1.90;;;19.70;63.90;;;;;;20630605;28;20080;-73
2022/10/29 02:28:27;;;;;;;4.60;1.60;;;19.70;64.00;;;;;;20663589;28;20035;-73
2022/10/29 02:38:28;;;;;;;3.78;1.77;;;19.60;64.00;;;;;;20697435;28;20372;-73
2022/10/29 02:48:28;;;;;;;2.72;1.60;;;19.60;64.00;;;;;;20671937;28;20026;-73
2022/10/29 02:58:29;;;;;;;2.55;1.23;;;19.70;64.10;;;;;;20676794;28;20038;-73
2022/10/29 03:08:29;;;;;;;5.05;1.60;;;19.60;64.00;;;;;;20644675;28;20038;-73
2022/10/29 03:18:30;;;;;;;3.38;1.55;;;19.60;64.00;;;;;;20652982;28;20057;-73
2022/10/29 03:28:31;;;;;;;3.95;1.40;;;19.70;64.00;;;;;;20669924;28;20121;-73
2022/10/29 03:38:32;;;;;;;3.33;1.33;;;19.60;64.00;;;;;;20676272;28;20148;-73
2022/10/29 03:48:33;;;;;;;3.88;1.88;;;19.60;64.00;;;;;;20661262;28;20282;-73
2022/10/29 03:58:33;;;;;;;2.35;1.20;;;19.60;63.90;;;;;;20633082;28;20041;-73
2022/10/29 04:08:34;;;;;;;3.07;1.93;;;19.60;64.00;;;;;;20671472;28;20034;-73
2022/10/29 04:18:34;;;;;;;1.77;1.10;;;19.80;63.50;;;;;;20644892;28;20285;-73
2022/10/29 04:28:35;;;;;;;2.60;1.38;;;20.40;61.90;;;;;;20665311;28;20030;-72
2022/10/29 04:38:36;;;;;;;3.20;1.63;;;20.80;60.70;;;;;;20680714;28;20038;-74
2022/10/29 04:48:36;;;;;;;2.03;1.30;;;21.10;59.80;;;;;;20690090;28;20289;-75
2022/10/29 04:58:37;;;;;;;2.17;1.45;;;21.20;59.20;;;;;;20688614;28;20562;-74
2022/10/29 05:08:37;;;;;;;2.88;1.05;;;21.30;58.90;;;;;;20671889;28;20042;-73
2022/10/29 05:18:38;;;;;;;2.50;1.33;;;21.30;58.60;;;;;;20668494;28;20404;-73
2022/10/29 05:28:39;;;;;;;2.47;1.48;;;21.30;58.50;;;;;;20681278;28;20301;-73
2022/10/29 05:38:39;;;;;;;4.45;1.67;;;21.40;58.50;;;;;;20696437;28;20029;-73
2022/10/29 05:48:40;;;;;;;1.63;0.80;;;21.30;58.40;;;;;;20696998;28;20498;-75
2022/10/29 05:58:40;;;;;;;2.58;1.15;;;21.30;58.40;;;;;;20651792;28;20439;-73
2022/10/29 06:08:41;;;;;;;4.43;1.20;;;21.20;58.40;;;;;;20663232;28;20128;-74
2022/10/29 06:18:42;;;;;;;2.13;1.00;;;21.20;58.50;;;;;;20682267;28;20297;-74
2022/10/29 06:28:42;;;;;;;2.17;1.30;;;21.20;58.40;;;;;;20650955;28;20034;-73
2022/10/29 06:38:43;;;;;;;1.52;1.00;;;21.10;58.40;;;;;;20660085;28;20042;-73
2022/10/29 06:48:43;;;;;;;0.77;0.70;;;21.10;58.40;;;;;;20678324;28;20368;-72
2022/10/29 06:58:44;;;;;;;2.23;1.20;;;21.10;58.50;;;;;;20677823;28;20029;-76
2022/10/29 07:08:45;;;;;;;1.53;0.87;;;21.10;58.50;;;;;;20644574;28;20293;-72
2022/10/29 07:18:45;;;;;;;2.60;1.25;;;21.00;58.50;;;;;;20647528;28;20368;-74
2022/10/29 07:28:46;;;;;;;2.97;1.00;;;21.00;58.60;;;;;;20657709;28;20029;-76
2022/10/29 07:38:48;;;;;;;2.70;1.17;;;21.00;58.70;;;;;;20661803;28;20052;-77
2022/10/29 07:48:50;;;;;;;4.43;1.23;;;21.00;58.70;;;;;;20675297;28;20161;-77
2022/10/29 07:58:50;;;;;;;1.33;0.93;;;20.90;58.70;;;;;;20659351;28;20033;-74
2022/10/29 08:08:52;;;;;;;2.05;0.80;;;20.90;58.70;;;;;;20663759;28;20030;-74
2022/10/29 08:18:53;;;;;;;1.80;0.90;;;20.90;59.00;;;;;;20672816;28;20096;-76
2022/10/29 08:28:53;;;;;;;1.67;0.88;;;20.90;59.10;;;;;;20691350;28;20041;-71
2022/10/29 08:38:54;;;;;;;2.13;1.10;;;20.90;59.10;;;;;;20669997;28;20030;-72
2022/10/29 08:48:57;;;;;;;3.85;1.05;;;20.90;59.20;;;;;;20661589;28;20057;-74
2022/10/29 08:59:09;;;;;;;4.40;1.30;;;20.90;59.30;;;;;;20666373;28;20408;-73
2022/10/29 09:09:16;;;;;;;2.97;1.55;;;20.90;59.40;;;;;;20693987;28;20081;-73
2022/10/29 09:19:28;;;;;;;3.38;0.93;;;20.80;59.40;;;;;;20721710;28;20052;-75
2022/10/29 09:29:51;;;;;;;5.45;1.30;;;20.80;59.60;;;;;;20697344;28;20034;-73
2022/10/29 09:39:51;;;;;;;3.80;1.60;;;20.80;59.80;;;;;;20704400;28;20061;-77
2022/10/29 09:50:14;;;;;;;3.55;0.85;;;20.90;59.80;;;;;;20699174;28;20030;-77
2022/10/29 10:00:19;;;;;;;3.25;1.92;;;20.90;59.70;;;;;;20682735;28;20050;-70
2022/10/29 10:10:21;;;;;;;3.57;0.87;;;21.00;59.70;;;;;;20664223;28;20065;-74
2022/10/29 10:21:02;;;;;;;4.13;1.13;;;21.00;59.60;;;;;;20655128;28;20038;-73
2022/10/29 10:31:03;;;;;;;3.83;1.40;;;21.10;59.60;;;;;;20695673;28;20038;-73
2022/10/29 10:41:06;;;;;;;3.00;1.05;;;21.10;59.50;;;;;;20694919;28;20362;-74
2022/10/29 10:51:22;;;;;;;5.55;1.25;;;21.10;59.50;;;;;;20654312;28;20096;-76
2022/10/29 11:01:36;;;;;;;3.60;1.25;;;21.10;59.50;;;;;;20689223;28;20038;-75
2022/10/29 11:11:46;;;;;;;4.93;1.60;;;21.20;59.50;;;;;;20680477;28;20476;-74
2022/10/29 11:22:24;;;;;;;1.42;1.23;;;21.20;59.50;;;;;;20663490;28;20033;-72
2022/10/29 11:32:43;;;;;;;2.83;1.52;;;21.20;59.50;;;;;;20661375;28;20038;-73
2022/10/29 11:42:44;;;;;;;1.85;1.10;;;21.30;59.50;;;;;;20698715;28;20088;-74
2022/10/29 11:53:11;;;;;;;3.30;1.10;;;21.40;59.30;;;;;;20658337;28;20034;-75
2022/10/29 12:03:14;;;;;;;1.88;1.00;;;21.40;59.00;;;;;;20672635;28;20858;-74
2022/10/29 12:13:38;;;;;;;2.03;1.17;;;21.50;58.70;;;;;;20687872;28;20034;-74
2022/10/29 12:23:49;;;;;;;1.58;0.88;;;21.60;58.40;;;;;;20675585;28;20053;-74
2022/10/29 12:34:21;;;;;;;1.90;1.17;;;21.60;58.20;;;;;;20635190;28;20121;-74
2022/10/29 12:44:44;;;;;;;1.20;0.90;;;21.70;58.10;;;;;;20666646;28;20034;-74
2022/10/29 12:54:45;;;;;;;1.92;0.80;;;21.70;57.90;;;;;;20664702;28;20429;-74
2022/10/29 13:05:04;;;;;;;2.35;1.33;;;21.70;57.80;;;;;;20681919;28;20053;-74
2022/10/29 13:15:09;;;;;;;2.22;1.25;;;21.70;57.70;;;;;;20706127;28;20041;-74
2022/10/29 13:25:31;;;;;;;1.43;0.90;;;21.80;57.70;;;;;;20657558;28;20041;-74
2022/10/29 13:35:37;;;;;;;1.77;0.88;;;21.80;57.60;;;;;;20706436;28;20026;-74
2022/10/29 13:45:39;;;;;;;2.33;1.02;;;21.80;57.60;;;;;;20681871;28;20030;-74
2022/10/29 13:55:43;;;;;;;3.10;1.20;;;21.80;57.50;;;;;;20668395;28;20430;-74
2022/10/29 14:05:46;;;;;;;1.58;0.70;;;21.80;57.40;;;;;;20662088;28;20066;-73
2022/10/29 14:16:05;;;;;;;1.42;0.73;;;21.90;57.40;;;;;;20662632;28;20030;-74
2022/10/29 14:26:15;;;;;;;1.45;0.82;;;21.90;57.30;;;;;;20661512;28;20038;-74
2022/10/29 14:36:46;;;;;;;2.35;1.17;;;21.90;57.30;;;;;;20640956;28;20034;-74
2022/10/29 14:46:51;;;;;;;4.93;0.98;;;21.90;57.30;;;;;;20665182;28;20039;-74
2022/10/29 14:56:54;;;;;;;1.08;0.70;;;21.90;57.30;;;;;;20645831;28;20072;-73
2022/10/29 15:07:15;;;;;;;2.88;1.20;;;21.90;57.30;;;;;;20656614;28;20046;-74
2022/10/29 15:17:24;;;;;;;1.83;0.98;;;21.90;57.30;;;;;;20668572;28;20051;-73
2022/10/29 15:27:25;;;;;;;3.35;0.90;;;21.90;57.30;;;;;;20646841;28;20117;-73
2022/10/29 15:37:33;;;;;;;1.05;0.65;;;21.80;57.30;;;;;;20658523;28;20076;-74
2022/10/29 15:47:35;;;;;;;0.98;0.63;;;21.80;58.00;;;;;;20662818;28;20465;-74
2022/10/29 15:57:35;;;;;;;0.65;0.55;;;21.80;57.40;;;;;;20640855;28;20094;-73
2022/10/29 16:07:37;;;;;;;1.13;0.68;;;21.80;57.50;;;;;;20675234;28;20061;-75
2022/10/29 16:17:37;;;;;;;0.90;0.63;;;21.70;57.50;;;;;;20657270;28;20472;-77
2022/10/29 16:27:38;;;;;;;2.03;0.80;;;21.70;57.60;;;;;;20669152;28;20468;-76
2022/10/29 16:37:39;;;;;;;1.60;1.00;;;21.70;57.60;;;;;;20658297;28;20308;-76
2022/10/29 16:47:39;;;;;;;1.58;0.90;;;21.70;57.80;;;;;;20690950;28;20042;-76
2022/10/29 16:57:40;;;;;;;1.58;1.02;;;21.70;57.80;;;;;;20666019;28;20064;-75
2022/10/29 17:07:40;;;;;;;2.20;1.30;;;21.70;57.80;;;;;;20678707;28;20046;-72
2022/10/29 17:17:41;;;;;;;2.27;1.17;;;21.60;57.80;;;;;;20670247;28;20647;-72
2022/10/29 17:27:42;;;;;;;1.70;0.90;;;21.60;57.90;;;;;;20657514;28;20700;-72
2022/10/29 17:37:42;;;;;;;4.95;1.95;;;21.60;57.90;;;;;;20676753;28;20315;-74
2022/10/29 17:47:43;;;;;;;1.63;1.10;;;21.60;58.00;;;;;;20651326;28;20038;-74
2022/10/29 17:57:43;;;;;;;1.70;0.90;;;21.60;58.00;;;;;;20669185;28;20285;-72
2022/10/29 18:07:44;;;;;;;1.80;1.35;;;21.50;58.00;;;;;;20668697;28;20041;-72
2022/10/29 18:17:45;;;;;;;2.67;1.10;;;21.50;58.10;;;;;;20634702;28;20085;-74
2022/10/29 18:27:46;;;;;;;2.60;1.20;;;21.50;58.10;;;;;;20660449;28;20034;-75
2022/10/29 18:37:47;;;;;;;1.25;0.95;;;21.50;58.20;;;;;;20658150;28;20030;-75
2022/10/29 18:47:48;;;;;;;5.25;1.30;;;21.40;58.30;;;;;;20646624;28;20079;-76
2022/10/29 18:57:48;;;;;;;1.70;1.05;;;21.40;58.40;;;;;;20657854;28;20071;-75
2022/10/29 19:07:49;;;;;;;2.80;1.30;;;21.40;58.40;;;;;;20644559;28;20431;-77
2022/10/29 19:17:51;;;;;;;2.17;1.02;;;21.40;58.40;;;;;;20650228;28;20137;-75
2022/10/29 19:27:51;;;;;;;2.60;1.50;;;21.40;58.50;;;;;;20649217;28;20084;-75
2022/10/29 19:37:52;;;;;;;2.22;1.50;;;21.30;58.40;;;;;;20658624;28;20458;-74
2022/10/29 19:47:53;;;;;;;2.78;1.20;;;21.40;58.50;;;;;;20648037;28;20037;-75
2022/10/29 19:57:53;;;;;;;2.60;1.20;;;21.30;58.50;;;;;;20648672;28;20030;-75
2022/10/29 20:07:54;;;;;;;3.17;1.48;;;21.40;58.60;;;;;;20672023;28;20030;-75
2022/10/29 20:17:55;;;;;;;2.70;1.35;;;21.30;58.60;;;;;;20661269;28;20038;-74
2022/10/29 20:28:00;;;;;;;4.72;1.58;;;21.30;58.70;;;;;;20684560;28;20029;-75
2022/10/29 20:38:01;;;;;;;3.17;1.42;;;21.30;58.70;;;;;;20672759;28;20495;-74
2022/10/29 20:48:02;;;;;;;2.25;1.00;;;21.20;58.70;;;;;;20688220;28;20026;-75
2022/10/29 20:58:03;;;;;;;1.88;1.20;;;21.20;58.70;;;;;;20647174;28;20595;-75
2022/10/29 21:08:03;;;;;;;1.65;1.15;;;21.20;58.70;;;;;;20656854;28;20069;-74
2022/10/29 21:18:04;;;;;;;2.25;1.50;;;21.20;58.80;;;;;;20681403;28;20040;-75
2022/10/29 21:28:05;;;;;;;2.50;1.30;;;21.20;58.80;;;;;;20689978;28;20484;-74
2022/10/29 21:38:05;;;;;;;2.90;1.45;;;21.10;58.80;;;;;;20700702;28;20615;-74
2022/10/29 21:48:06;;;;;;;2.50;1.30;;;21.10;58.80;;;;;;20680026;28;20381;-75
2022/10/29 21:58:07;;;;;;;2.07;1.20;;;21.10;58.80;;;;;;20665562;28;20058;-76
2022/10/29 22:08:07;;;;;;;1.98;1.40;;;21.10;58.90;;;;;;20689064;28;20344;-74
2022/10/29 22:18:08;;;;;;;3.83;1.73;;;21.10;58.90;;;;;;20678420;28;20174;-75
2022/10/29 22:28:09;;;;;;;4.45;1.80;;;21.00;58.90;;;;;;20659012;28;20095;-74
2022/10/29 22:38:09;;;;;;;2.30;1.55;;;21.00;58.90;;;;;;20680545;28;20038;-74
2022/10/29 22:48:10;;;;;;;5.20;1.75;;;21.00;59.00;;;;;;20690328;28;20041;-74
2022/10/29 22:58:10;;;;;;;3.30;1.60;;;21.00;59.00;;;;;;20674368;28;20037;-75
2022/10/29 23:08:11;;;;;;;2.73;1.80;;;21.00;59.00;;;;;;20652863;28;20044;-75
2022/10/29 23:18:12;;;;;;;1.53;1.13;;;21.00;59.00;;;;;;20661066;28;20468;-75
2022/10/29 23:28:12;;;;;;;3.53;2.17;;;20.90;59.00;;;;;;20641049;28;20277;-74
2022/10/29 23:38:13;;;;;;;3.03;1.40;;;20.90;59.00;;;;;;20663289;28;20040;-74
2022/10/29 23:48:16;;;;;;;2.55;1.77;;;20.90;59.00;;;;;;20643264;28;20434;-74
2022/10/29 23:58:16;;;;;;;4.28;1.80;;;20.90;59.00;;;;;;20666494;28;20100;-74
